createdAt,value
2023-01-23T00:01:27.894Z,101359.34
2023-01-23T00:03:55.974Z,101353.09
2023-01-23T00:06:23.569Z,101359.19
2023-01-23T00:08:51.205Z,101348.69
2023-01-23T00:11:22.132Z,101350.22
2023-01-23T00:13:49.825Z,101352.84
2023-01-23T00:16:19.005Z,101349.94
2023-01-23T00:18:46.629Z,101353.47
2023-01-23T00:21:17.696Z,101344.97
2023-01-23T00:23:50.788Z,101336.75
2023-01-23T00:26:24.137Z,101345.59
2023-01-23T00:28:51.497Z,101325.69
2023-01-23T00:31:22.760Z,101328.91
2023-01-23T00:33:55.412Z,101308.03
2023-01-23T00:36:23.632Z,101314.88
2023-01-23T00:38:50.349Z,101315.56
2023-01-23T00:41:17.261Z,101314.88
2023-01-23T00:43:44.983Z,101320.91
2023-01-23T00:46:11.831Z,101307.03
2023-01-23T00:48:39.967Z,101325.50
2023-01-23T00:51:06.857Z,101315.84
2023-01-23T00:53:33.658Z,101316.63
2023-01-23T00:56:00.551Z,101312.47
2023-01-23T00:58:27.278Z,101302.19
2023-01-23T01:00:54.557Z,101297.41
2023-01-23T01:03:28.721Z,101300.19
2023-01-23T01:05:56.142Z,101281.84
2023-01-23T01:08:27.672Z,101285.56
2023-01-23T01:10:54.515Z,101281.22
2023-01-23T01:13:23.733Z,101297.72
2023-01-23T01:15:51.824Z,101298.56
2023-01-23T01:18:22.616Z,101284.38
2023-01-23T01:20:50.161Z,101282.59
2023-01-23T01:23:17.059Z,101283.50
2023-01-23T01:25:46.925Z,101274.91
2023-01-23T01:28:14.585Z,101278.25
2023-01-23T01:30:41.487Z,101261.00
2023-01-23T01:33:08.829Z,101269.81
2023-01-23T01:35:35.643Z,101269.97
2023-01-23T01:38:02.722Z,101268.72
2023-01-23T01:40:35.646Z,101252.91
2023-01-23T01:43:09.170Z,101249.50
2023-01-23T01:46:33.341Z,101244.97
2023-01-23T01:49:17.231Z,101241.41
2023-01-23T01:51:59.628Z,101236.50
2023-01-23T01:54:35.395Z,101231.94
2023-01-23T01:57:07.750Z,101226.59
2023-01-23T01:59:46.681Z,101217.53
2023-01-23T02:02:18.242Z,101217.47
2023-01-23T02:04:55.388Z,101220.69
2023-01-23T02:07:54.520Z,101214.84
2023-01-23T02:10:22.359Z,101207.81
2023-01-23T02:12:51.485Z,101214.91
2023-01-23T02:15:21.408Z,101221.00
2023-01-23T02:17:51.671Z,101216.78
2023-01-23T02:20:23.473Z,101229.97
2023-01-23T02:23:14.269Z,101233.28
2023-01-23T02:25:45.736Z,101239.34
2023-01-23T02:28:16.881Z,101238.63
2023-01-23T02:30:50.700Z,101232.19
2023-01-23T02:33:20.481Z,101243.78
2023-01-23T02:35:47.731Z,101249.94
2023-01-23T02:38:17.818Z,101243.59
2023-01-23T02:40:44.606Z,101244.28
2023-01-23T02:43:21.423Z,101251.59
2023-01-23T02:45:56.010Z,101252.03
2023-01-23T02:48:24.013Z,101244.22
2023-01-23T02:50:50.946Z,101249.31
2023-01-23T02:53:18.350Z,101250.13
2023-01-23T02:55:45.141Z,101240.94
2023-01-23T02:58:31.372Z,101249.06
2023-01-23T03:00:58.279Z,101255.44
2023-01-23T03:03:25.113Z,101256.84
2023-01-23T03:05:54.364Z,101254.91
2023-01-23T03:08:21.449Z,101260.06
2023-01-23T03:10:48.266Z,101258.63
2023-01-23T03:13:15.172Z,101246.19
2023-01-23T03:15:43.250Z,101256.25
2023-01-23T03:18:10.384Z,101263.38
2023-01-23T03:20:41.832Z,101262.69
2023-01-23T03:23:09.129Z,101258.59
2023-01-23T03:25:35.911Z,101255.03
2023-01-23T03:28:03.992Z,101243.25
2023-01-23T03:30:30.955Z,101243.53
2023-01-23T03:32:57.733Z,101247.59
2023-01-23T03:35:24.561Z,101237.00
2023-01-23T03:37:54.388Z,101222.25
2023-01-23T03:40:44.017Z,101218.13
2023-01-23T03:43:14.461Z,101221.28
2023-01-23T03:45:47.275Z,101213.16
2023-01-23T03:48:14.272Z,101212.47
2023-01-23T03:50:43.713Z,101211.25
2023-01-23T03:53:10.569Z,101206.50
2023-01-23T03:55:37.682Z,101205.00
2023-01-23T03:58:04.473Z,101213.91
2023-01-23T04:00:32.195Z,101208.34
2023-01-23T04:03:04.304Z,101199.16
2023-01-23T04:05:31.615Z,101207.41
2023-01-23T04:07:59.343Z,101212.38
2023-01-23T04:10:26.519Z,101210.03
2023-01-23T04:12:56.200Z,101201.00
2023-01-23T04:15:23.398Z,101204.50
2023-01-23T04:17:52.056Z,101211.63
2023-01-23T04:20:20.217Z,101199.78
2023-01-23T04:22:47.316Z,101196.09
2023-01-23T04:25:14.842Z,101192.84
2023-01-23T04:27:41.772Z,101180.53
2023-01-23T04:30:10.665Z,101192.53
2023-01-23T04:32:37.398Z,101193.78
2023-01-23T04:35:04.703Z,101192.28
2023-01-23T04:37:32.093Z,101183.34
2023-01-23T04:39:59.567Z,101189.75
2023-01-23T04:42:26.465Z,101199.22
2023-01-23T04:45:08.350Z,101207.03
2023-01-23T04:47:47.437Z,101201.97
2023-01-23T04:50:17.073Z,101194.91
2023-01-23T04:52:46.072Z,101196.81
2023-01-23T04:55:13.723Z,101199.44
2023-01-23T04:57:42.707Z,101210.97
2023-01-23T05:00:22.843Z,101202.78
2023-01-23T05:02:50.760Z,101204.28
2023-01-23T05:05:20.875Z,101208.31
2023-01-23T05:07:51.043Z,101198.72
2023-01-23T05:10:18.636Z,101197.22
2023-01-23T05:12:46.440Z,101193.94
2023-01-23T05:15:13.461Z,101199.84
2023-01-23T05:17:41.825Z,101195.94
2023-01-23T05:20:10.885Z,101193.63
2023-01-23T05:22:52.112Z,101192.25
2023-01-23T05:25:26.825Z,101205.16
2023-01-23T05:27:55.862Z,101201.59
2023-01-23T05:30:23.981Z,101211.56
2023-01-23T05:32:54.970Z,101221.69
2023-01-23T05:35:22.613Z,101219.91
2023-01-23T05:37:53.277Z,101213.81
2023-01-23T05:40:23.655Z,101220.16
2023-01-23T05:43:23.171Z,101214.81
2023-01-23T05:46:07.844Z,101221.75
2023-01-23T05:48:53.003Z,101211.88
2023-01-23T05:51:23.490Z,101212.44
2023-01-23T05:53:51.422Z,101211.59
2023-01-23T05:56:18.556Z,101207.28
2023-01-23T05:59:23.767Z,101214.72
2023-01-23T06:02:17.137Z,101220.63
2023-01-23T06:05:02.536Z,101222.41
2023-01-23T06:07:45.883Z,101216.09
2023-01-23T06:10:13.553Z,101216.59
2023-01-23T06:12:41.017Z,101213.19
2023-01-23T06:15:08.294Z,101213.00
2023-01-23T06:17:35.456Z,101214.41
2023-01-23T06:20:02.609Z,101215.53
2023-01-23T06:22:31.609Z,101213.72
2023-01-23T06:25:10.294Z,101216.47
2023-01-23T06:27:37.270Z,101219.19
2023-01-23T06:30:08.305Z,101216.09
2023-01-23T06:32:46.507Z,101219.75
2023-01-23T06:35:17.425Z,101227.19
2023-01-23T06:37:45.111Z,101233.28
2023-01-23T06:40:15.860Z,101255.34
2023-01-23T06:42:55.010Z,101245.03
2023-01-23T06:45:22.699Z,101256.47
2023-01-23T06:47:52.657Z,101262.81
2023-01-23T06:50:20.074Z,101251.31
2023-01-23T06:52:47.177Z,101259.97
2023-01-23T06:55:14.739Z,101267.09
2023-01-23T06:57:41.986Z,101269.00
2023-01-23T07:00:10.799Z,101269.91
2023-01-23T07:02:39.272Z,101262.22
2023-01-23T07:05:06.360Z,101272.44
2023-01-23T07:07:33.187Z,101276.47
2023-01-23T07:10:00.055Z,101282.69
2023-01-23T07:12:26.892Z,101287.09
2023-01-23T07:14:53.663Z,101288.69
2023-01-23T07:17:33.647Z,101299.78
2023-01-23T07:20:00.788Z,101298.56
2023-01-23T07:22:27.545Z,101290.47
2023-01-23T07:24:54.350Z,101293.66
2023-01-23T07:27:21.105Z,101300.78
2023-01-23T07:29:47.959Z,101305.31
2023-01-23T07:32:14.713Z,101305.69
2023-01-23T07:34:41.470Z,101304.28
2023-01-23T07:37:08.299Z,101314.53
2023-01-23T07:39:35.110Z,101318.94
2023-01-23T07:42:01.853Z,101332.06
2023-01-23T07:44:29.192Z,101329.84
2023-01-23T07:46:56.945Z,101342.06
2023-01-23T07:49:23.816Z,101362.41
2023-01-23T07:51:50.538Z,101354.53
2023-01-23T07:54:17.338Z,101350.09
2023-01-23T07:56:44.111Z,101354.34
2023-01-23T07:59:12.929Z,101342.22
2023-01-23T08:01:39.761Z,101350.22
2023-01-23T08:04:06.635Z,101344.00
2023-01-23T08:06:34.493Z,101338.19
2023-01-23T08:09:01.291Z,101335.47
2023-01-23T08:11:28.057Z,101329.28
2023-01-23T08:13:54.839Z,101344.41
2023-01-23T08:16:21.691Z,101338.00
2023-01-23T08:18:48.538Z,101344.94
2023-01-23T08:21:15.457Z,101343.25
2023-01-23T08:23:42.659Z,101344.56
2023-01-23T08:26:11.491Z,101342.41
2023-01-23T08:28:38.294Z,101349.00
2023-01-23T08:31:07.712Z,101343.72
2023-01-23T08:33:36.258Z,101351.63
2023-01-23T08:36:05.144Z,101358.09
2023-01-23T08:38:32.345Z,101362.88
2023-01-23T08:41:01.432Z,101357.41
2023-01-23T08:43:28.758Z,101356.59
2023-01-23T08:45:57.400Z,101362.03
2023-01-23T08:48:25.635Z,101360.53
2023-01-23T08:50:58.288Z,101364.28
2023-01-23T08:53:25.188Z,101370.75
2023-01-23T08:55:51.899Z,101370.19
2023-01-23T08:58:18.682Z,101366.22
2023-01-23T09:00:45.473Z,101362.19
2023-01-23T09:03:12.198Z,101357.03
2023-01-23T09:05:39.020Z,101355.53
2023-01-23T09:08:05.782Z,101355.53
2023-01-23T09:10:32.540Z,101339.94
2023-01-23T09:12:59.541Z,101353.94
2023-01-23T09:15:26.600Z,101355.81
2023-01-23T09:17:53.363Z,101346.72
2023-01-23T09:20:20.619Z,101339.59
2023-01-23T09:22:47.476Z,101349.25
2023-01-23T09:25:14.474Z,101335.91
2023-01-23T09:27:41.373Z,101345.97
2023-01-23T09:30:08.734Z,101339.84
2023-01-23T09:32:35.581Z,101341.16
2023-01-23T09:35:02.371Z,101360.97
2023-01-23T09:37:58.453Z,101361.91
2023-01-23T09:40:29.067Z,101353.75
2023-01-23T09:43:00.312Z,101354.25
2023-01-23T09:45:28.100Z,101352.34
2023-01-23T09:48:16.177Z,101351.53
2023-01-23T09:50:54.517Z,101363.06
2023-01-23T09:53:25.753Z,101357.81
2023-01-23T09:56:21.818Z,101366.06
2023-01-23T09:59:00.907Z,101362.88
2023-01-23T10:01:33.149Z,101362.69
2023-01-23T10:04:02.109Z,101357.63
2023-01-23T10:07:04.612Z,101364.09
2023-01-23T10:09:43.269Z,101366.47
2023-01-23T10:12:25.049Z,101364.97
2023-01-23T10:15:27.733Z,101360.53
2023-01-23T10:18:33.135Z,101357.53
2023-01-23T10:21:24.055Z,101356.00
2023-01-23T10:24:09.131Z,101356.19
2023-01-23T10:26:43.570Z,101354.97
2023-01-23T10:29:24.090Z,101348.03
2023-01-23T10:31:56.428Z,101355.19
2023-01-23T10:34:37.811Z,101356.28
2023-01-23T10:37:22.209Z,101366.50
2023-01-23T10:39:55.018Z,101357.78
2023-01-23T10:42:23.957Z,101357.13
2023-01-23T10:44:51.056Z,101359.50
2023-01-23T10:47:35.544Z,101363.34
2023-01-23T10:50:04.467Z,101360.72
2023-01-23T10:52:31.206Z,101356.19
2023-01-23T10:54:58.126Z,101341.75
2023-01-23T10:57:27.794Z,101346.75
2023-01-23T11:00:04.128Z,101351.63
2023-01-23T11:02:33.874Z,101354.88
2023-01-23T11:05:01.423Z,101353.56
2023-01-23T11:07:31.145Z,101358.25
2023-01-23T11:10:01.566Z,101364.72
2023-01-23T11:12:34.337Z,101352.78
2023-01-23T11:15:23.343Z,101355.16
2023-01-23T11:17:52.405Z,101352.84
2023-01-23T11:20:27.558Z,101354.97
2023-01-23T11:23:11.016Z,101346.38
2023-01-23T11:25:39.449Z,101336.88
2023-01-23T11:28:27.240Z,101342.13
2023-01-23T11:31:12.428Z,101347.94
2023-01-23T11:33:53.168Z,101330.59
2023-01-23T11:36:20.049Z,101329.63
2023-01-23T11:38:53.274Z,101341.09
2023-01-23T11:41:31.455Z,101332.63
2023-01-23T11:43:58.771Z,101331.03
2023-01-23T11:47:01.974Z,101334.53
2023-01-23T11:49:55.731Z,101327.97
2023-01-23T11:52:36.911Z,101342.69
2023-01-23T11:55:34.702Z,101338.66
2023-01-23T11:58:22.258Z,101334.63
2023-01-23T12:01:12.315Z,101340.03
2023-01-23T12:03:59.247Z,101342.03
2023-01-23T12:06:50.225Z,101336.69
2023-01-23T12:09:21.818Z,101316.38
2023-01-23T12:12:19.495Z,101333.66
2023-01-23T12:15:11.106Z,101333.38
2023-01-23T12:17:47.106Z,101329.44
2023-01-23T12:20:30.491Z,101332.16
2023-01-23T12:23:19.006Z,101331.81
2023-01-23T12:25:54.549Z,101332.25
2023-01-23T12:29:18.869Z,101335.28
2023-01-23T12:32:12.186Z,101341.47
2023-01-23T12:35:03.712Z,101335.91
2023-01-23T12:37:39.835Z,101341.47
2023-01-23T12:40:14.225Z,101351.88
2023-01-23T12:42:49.444Z,101336.97
2023-01-23T12:45:24.380Z,101349.91
2023-01-23T12:48:06.729Z,101347.50
2023-01-23T12:50:53.686Z,101348.91
2023-01-23T12:53:25.210Z,101348.16
2023-01-23T12:56:02.011Z,101341.84
2023-01-23T12:58:32.285Z,101341.47
2023-01-23T13:01:15.965Z,101344.69
2023-01-23T13:03:47.023Z,101341.28
2023-01-23T13:06:41.300Z,101338.00
2023-01-23T13:09:22.902Z,101342.22
2023-01-23T13:12:16.419Z,101344.00
2023-01-23T13:15:06.479Z,101344.13
2023-01-23T13:17:51.858Z,101350.50
2023-01-23T13:20:40.495Z,101356.09
2023-01-23T13:23:22.493Z,101343.72
2023-01-23T13:25:50.621Z,101347.09
2023-01-23T13:28:43.984Z,101353.56
2023-01-23T13:31:35.821Z,101349.91
2023-01-23T13:34:24.764Z,101353.47
2023-01-23T13:36:53.233Z,101352.75
2023-01-23T13:39:28.951Z,101346.75
2023-01-23T13:42:14.230Z,101355.66
2023-01-23T13:45:18.321Z,101351.53
2023-01-23T14:25:01.979Z,101387.59
2023-01-23T14:27:36.744Z,101388.91
2023-01-23T14:30:16.017Z,101397.38
2023-01-23T14:32:44.397Z,101401.50
2023-01-23T14:35:28.103Z,101390.69
2023-01-23T14:37:59.275Z,101403.38
2023-01-23T14:40:29.787Z,101388.25
2023-01-23T14:43:03.831Z,101398.50
2023-01-23T14:45:33.558Z,101399.16
2023-01-23T14:48:06.363Z,101400.00
2023-01-23T14:50:34.344Z,101403.84
2023-01-23T14:53:04.539Z,101402.91
2023-01-23T14:55:38.983Z,101403.66
2023-01-23T14:58:07.460Z,101410.50
2023-01-23T15:00:35.849Z,101409.19
2023-01-23T15:03:04.593Z,101416.53
2023-01-23T15:05:32.900Z,101418.78
2023-01-23T15:08:07.413Z,101425.16
2023-01-23T15:10:46.837Z,101421.88
2023-01-23T15:13:25.685Z,101426.47
2023-01-23T15:16:02.349Z,101431.81
2023-01-23T15:18:31.402Z,101431.63
2023-01-23T15:21:05.929Z,101438.97
2023-01-23T15:23:37.209Z,101430.13
2023-01-23T15:26:32.502Z,101441.59
2023-01-23T15:29:17.351Z,101436.16
2023-01-23T15:31:50.715Z,101446.38
2023-01-23T15:34:27.898Z,101451.34
2023-01-23T15:36:56.814Z,101459.63
2023-01-23T15:39:37.069Z,101445.34
2023-01-23T15:42:28.832Z,101436.53
2023-01-23T15:44:55.859Z,101438.69
2023-01-23T15:47:22.629Z,101441.78
2023-01-23T15:49:49.463Z,101435.22
2023-01-23T15:52:25.114Z,101435.97
2023-01-23T15:54:55.228Z,101433.88
2023-01-23T15:57:21.892Z,101444.84
2023-01-23T15:59:48.887Z,101448.88
2023-01-23T16:02:30.622Z,101456.19
2023-01-23T16:04:58.719Z,101456.56
2023-01-23T16:07:31.325Z,101460.41
2023-01-23T16:09:58.324Z,101459.63
2023-01-23T16:12:29.286Z,101475.41
2023-01-23T16:14:57.408Z,101465.06
2023-01-23T16:17:24.433Z,101469.50
2023-01-23T16:19:51.536Z,101472.69
2023-01-23T16:22:26.197Z,101480.47
2023-01-23T16:24:53.479Z,101466.78
2023-01-23T16:27:27.483Z,101473.25
2023-01-23T16:29:55.553Z,101483.19
2023-01-23T16:32:22.896Z,101476.44
2023-01-23T16:34:49.944Z,101481.88
2023-01-23T16:37:18.759Z,101479.34
2023-01-23T16:39:46.998Z,101492.28
2023-01-23T16:42:20.513Z,101482.47
2023-01-23T16:44:47.430Z,101479.41
2023-01-23T16:47:14.194Z,101475.88
2023-01-23T16:49:51.379Z,101483.75
2023-01-23T16:52:20.423Z,101485.38
2023-01-23T16:54:47.626Z,101480.56
2023-01-23T16:57:19.818Z,101476.94
2023-01-23T16:59:48.321Z,101487.50
2023-01-23T17:02:27.291Z,101488.63
2023-01-23T17:04:54.599Z,101496.75
2023-01-23T17:07:21.375Z,101484.56
2023-01-23T17:09:49.363Z,101495.06
2023-01-23T17:12:27.587Z,101505.75
2023-01-23T17:14:56.019Z,101511.88
2023-01-23T17:17:32.926Z,101500.50
2023-01-23T17:20:01.784Z,101503.72
2023-01-23T17:22:34.028Z,101507.13
2023-01-23T17:25:00.828Z,101504.22
2023-01-23T17:27:27.590Z,101510.97
2023-01-23T17:29:54.318Z,101512.50
2023-01-23T17:32:31.293Z,101509.28
2023-01-23T17:35:02.742Z,101510.31
2023-01-23T17:37:30.659Z,101514.03
2023-01-23T17:39:58.599Z,101518.09
2023-01-23T17:42:25.440Z,101522.78
2023-01-23T17:44:52.235Z,101519.06
2023-01-23T17:47:19.408Z,101518.47
2023-01-23T17:49:51.654Z,101525.84
2023-01-23T17:52:20.307Z,101528.25
2023-01-23T17:54:47.530Z,101538.94
2023-01-23T17:57:15.146Z,101534.97
2023-01-23T17:59:42.041Z,101540.47
2023-01-23T18:02:20.783Z,101550.31
2023-01-23T18:04:47.595Z,101547.19
2023-01-23T18:07:15.059Z,101549.63
2023-01-23T18:09:41.817Z,101548.94
2023-01-23T18:12:16.569Z,101547.50
2023-01-23T18:14:58.291Z,101545.38
2023-01-23T18:17:43.853Z,101545.47
2023-01-23T18:20:22.377Z,101554.03
2023-01-23T18:22:50.057Z,101560.75
2023-01-23T18:25:19.262Z,101561.84
2023-01-23T18:27:50.647Z,101568.94
2023-01-23T18:30:37.865Z,101566.31
2023-01-23T18:33:29.366Z,101570.97
2023-01-23T18:35:57.064Z,101567.69
2023-01-23T18:38:42.334Z,101579.66
2023-01-23T18:41:21.395Z,101583.19
2023-01-23T18:43:54.378Z,101579.56
2023-01-23T18:46:24.013Z,101586.47
2023-01-23T18:48:51.171Z,101585.47
2023-01-23T18:51:20.998Z,101586.44
2023-01-23T18:54:24.775Z,101588.69
2023-01-23T18:57:13.074Z,101588.19
2023-01-23T18:59:52.018Z,101591.50
2023-01-23T19:02:35.937Z,101589.81
2023-01-23T19:05:13.883Z,101599.47
2023-01-23T19:07:41.523Z,101591.59
2023-01-23T19:10:14.834Z,101601.94
2023-01-23T19:12:47.768Z,101600.31
2023-01-23T19:15:52.198Z,101604.56
2023-01-23T19:18:41.100Z,101618.38
2023-01-23T19:21:27.334Z,101614.31
2023-01-23T19:24:09.964Z,101621.00
2023-01-23T19:26:39.628Z,101621.22
2023-01-23T19:29:21.034Z,101630.91
2023-01-23T19:32:06.144Z,101634.69
2023-01-23T19:34:34.353Z,101634.25
2023-01-23T19:37:01.388Z,101634.88
2023-01-23T19:39:28.143Z,101628.00
2023-01-23T19:41:54.958Z,101631.56
2023-01-23T19:44:24.352Z,101629.00
2023-01-23T19:46:52.400Z,101623.84
2023-01-23T19:49:19.426Z,101623.84
2023-01-23T19:51:46.531Z,101636.06
2023-01-23T19:54:16.597Z,101637.91
2023-01-23T19:56:43.175Z,101645.59
2023-01-23T19:59:10.028Z,101642.41
2023-01-23T20:01:48.445Z,101655.34
2023-01-23T20:04:17.984Z,101653.31
2023-01-23T20:06:49.098Z,101648.41
2023-01-23T20:09:16.225Z,101659.53
2023-01-23T20:11:44.106Z,101658.56
2023-01-23T20:14:11.977Z,101655.81
2023-01-23T20:16:41.047Z,101665.97
2023-01-23T20:19:08.325Z,101654.34
2023-01-23T20:21:35.294Z,101652.91
2023-01-23T20:24:02.130Z,101648.56
2023-01-23T20:26:28.902Z,101654.66
2023-01-23T20:28:55.707Z,101670.50
2023-01-23T20:31:23.164Z,101667.13
2023-01-23T20:33:50.544Z,101670.75
2023-01-23T20:36:17.431Z,101669.13
2023-01-23T20:38:44.596Z,101673.22
2023-01-23T20:41:18.713Z,101670.91
2023-01-23T20:43:46.290Z,101671.91
2023-01-23T20:46:15.662Z,101672.75
2023-01-23T20:48:44.325Z,101680.72
2023-01-23T20:51:12.429Z,101685.88
2023-01-23T20:53:40.089Z,101688.13
2023-01-23T20:56:13.714Z,101695.31
2023-01-23T20:59:01.565Z,101701.47
2023-01-23T21:01:30.981Z,101703.44
2023-01-23T21:03:57.855Z,101700.09
2023-01-23T21:06:24.586Z,101706.13
2023-01-23T21:08:51.301Z,101704.66
2023-01-23T21:11:20.078Z,101704.00
2023-01-23T21:13:51.581Z,101693.69
2023-01-23T21:16:20.738Z,101693.22
2023-01-23T21:18:47.727Z,101703.72
2023-01-23T21:21:20.160Z,101704.66
2023-01-23T21:23:49.338Z,101706.50
2023-01-23T21:26:18.400Z,101698.72
2023-01-23T21:28:47.172Z,101705.03
2023-01-23T21:31:20.313Z,101714.38
2023-01-23T21:33:47.607Z,101704.59
2023-01-23T21:36:17.523Z,101721.19
2023-01-23T21:38:45.083Z,101721.34
2023-01-23T21:41:12.249Z,101722.00
2023-01-23T21:43:39.239Z,101718.63
2023-01-23T21:46:06.508Z,101723.81
2023-01-23T21:48:33.818Z,101724.88
2023-01-23T21:51:21.252Z,101721.25
2023-01-23T21:53:50.265Z,101725.50
2023-01-23T21:56:19.295Z,101731.34
2023-01-23T21:58:47.267Z,101728.81
2023-01-23T22:01:41.348Z,101721.19
2023-01-23T22:04:12.979Z,101722.81
2023-01-23T22:06:42.591Z,101716.69
2023-01-23T22:09:13.845Z,101718.38
2023-01-23T22:11:40.861Z,101712.84
2023-01-23T22:14:07.658Z,101712.22
2023-01-23T22:16:50.872Z,101714.00
2023-01-23T22:19:25.623Z,101713.94
2023-01-23T22:21:57.184Z,101723.47
2023-01-23T22:24:24.438Z,101711.31
2023-01-23T22:26:51.849Z,101705.97
2023-01-23T22:29:18.796Z,101708.44
2023-01-23T22:31:45.629Z,101710.34
2023-01-23T22:34:12.508Z,101709.50
2023-01-23T22:36:39.296Z,101708.59
2023-01-23T22:39:06.402Z,101705.09
2023-01-23T22:41:33.300Z,101711.06
2023-01-23T22:44:00.047Z,101712.63
2023-01-23T22:46:28.089Z,101714.16
2023-01-23T22:48:54.937Z,101706.72
2023-01-23T22:51:25.470Z,101705.72
2023-01-23T22:53:53.453Z,101711.25
2023-01-23T22:56:20.597Z,101710.72
2023-01-23T22:58:49.120Z,101706.78
2023-01-23T23:01:16.587Z,101709.59
2023-01-23T23:03:44.138Z,101706.72
2023-01-23T23:06:13.880Z,101713.94
2023-01-23T23:08:41.522Z,101719.22
2023-01-23T23:11:10.061Z,101723.47
2023-01-23T23:13:38.465Z,101707.19
2023-01-23T23:16:15.158Z,101715.41
2023-01-23T23:18:42.100Z,101718.88
2023-01-23T23:21:11.497Z,101719.88
2023-01-23T23:23:39.235Z,101710.63
2023-01-23T23:26:07.640Z,101713.50
2023-01-23T23:28:35.353Z,101702.53
2023-01-23T23:31:02.200Z,101707.88
2023-01-23T23:33:29.105Z,101708.09
2023-01-23T23:35:56.056Z,101701.16
2023-01-23T23:38:22.950Z,101706.50
2023-01-23T23:41:00.229Z,101708.88
2023-01-23T23:43:28.569Z,101714.59
2023-01-23T23:45:59.825Z,101700.16
2023-01-23T23:48:28.013Z,101702.78
2023-01-23T23:50:55.109Z,101707.38
2023-01-23T23:53:22.552Z,101709.63
2023-01-23T23:55:51.711Z,101714.22
2023-01-23T23:58:18.572Z,101705.47
